createdAt,value
2023-05-08T00:01:55.546Z,70.27
2023-05-08T00:04:23.679Z,70.51
2023-05-08T00:06:53.064Z,70.82
2023-05-08T00:09:21.343Z,71.00
2023-05-08T00:11:49.515Z,71.15
2023-05-08T00:14:17.573Z,71.29
2023-05-08T00:16:45.795Z,71.26
2023-05-08T00:19:15.268Z,71.61
2023-05-08T00:21:43.371Z,71.72
2023-05-08T00:24:11.405Z,71.96
2023-05-08T00:26:39.478Z,72.04
2023-05-08T00:29:07.536Z,72.21
2023-05-08T00:31:35.636Z,72.29
2023-05-08T00:34:03.760Z,72.34
2023-05-08T00:36:33.380Z,72.54
2023-05-08T00:39:01.533Z,72.83
2023-05-08T00:41:29.624Z,72.97
2023-05-08T00:43:57.707Z,73.27
2023-05-08T00:46:25.898Z,73.39
2023-05-08T00:48:54.395Z,73.55
2023-05-08T00:51:23.085Z,73.78
2023-05-08T00:53:52.544Z,73.65
2023-05-08T00:56:21.626Z,73.66
2023-05-08T00:58:49.910Z,74.08
2023-05-08T01:01:18.131Z,74.11
2023-05-08T01:03:46.421Z,74.38
2023-05-08T01:06:14.598Z,74.63
2023-05-08T01:08:45.032Z,74.76
2023-05-08T01:11:19.097Z,74.70
2023-05-08T01:13:53.253Z,75.09
2023-05-08T01:16:28.721Z,75.20
2023-05-08T01:19:02.510Z,74.90
2023-05-08T01:21:35.730Z,75.24
2023-05-08T01:24:24.658Z,74.99
2023-05-08T01:27:13.912Z,75.12
2023-05-08T01:30:31.949Z,75.13
2023-05-08T01:33:08.355Z,75.07
2023-05-08T01:35:44.224Z,75.06
2023-05-08T01:38:20.457Z,75.42
2023-05-08T01:40:53.766Z,75.54
2023-05-08T01:43:26.658Z,75.49
2023-05-08T01:45:56.195Z,75.73
2023-05-08T01:48:29.074Z,75.69
2023-05-08T01:51:02.459Z,75.80
2023-05-08T01:53:33.120Z,76.21
2023-05-08T01:56:04.667Z,76.18
2023-05-08T01:58:34.019Z,76.27
2023-05-08T02:01:03.008Z,76.52
2023-05-08T02:03:34.300Z,76.68
2023-05-08T02:06:03.207Z,76.85
2023-05-08T02:08:32.986Z,76.91
2023-05-08T02:11:01.917Z,77.08
2023-05-08T02:13:31.293Z,76.91
2023-05-08T02:16:00.615Z,77.04
2023-05-08T02:18:29.326Z,77.13
2023-05-08T02:21:01.297Z,77.11
2023-05-08T02:23:29.702Z,76.94
2023-05-08T02:25:58.482Z,77.19
2023-05-08T02:28:27.517Z,77.11
2023-05-08T02:30:56.113Z,77.42
2023-05-08T02:33:25.131Z,77.56
2023-05-08T02:35:55.077Z,77.62
2023-05-08T02:38:24.989Z,77.74
2023-05-08T02:40:57.424Z,77.83
2023-05-08T02:43:25.604Z,77.94
2023-05-08T02:46:00.319Z,77.76
2023-05-08T02:48:34.474Z,77.80
2023-05-08T02:51:10.409Z,78.02
2023-05-08T02:53:51.871Z,78.08
2023-05-08T02:56:23.057Z,78.06
2023-05-08T02:58:59.043Z,78.17
2023-05-08T03:01:30.270Z,78.17
2023-05-08T03:04:02.952Z,78.04
2023-05-08T03:06:32.807Z,77.92
2023-05-08T03:09:02.844Z,77.67
2023-05-08T03:11:38.027Z,77.80
2023-05-08T03:14:07.551Z,77.74
2023-05-08T03:16:37.833Z,77.26
2023-05-08T03:19:11.523Z,77.54
2023-05-08T03:21:40.256Z,77.54
2023-05-08T03:24:10.737Z,77.65
2023-05-08T03:26:38.938Z,77.76
2023-05-08T03:29:07.321Z,77.84
2023-05-08T03:31:36.402Z,78.01
2023-05-08T03:34:05.677Z,78.20
2023-05-08T03:36:33.790Z,78.01
2023-05-08T03:39:01.949Z,78.11
2023-05-08T03:41:31.873Z,77.82
2023-05-08T03:44:00.348Z,77.65
2023-05-08T03:46:28.507Z,77.48
2023-05-08T03:48:56.974Z,77.35
2023-05-08T03:51:25.455Z,77.26
2023-05-08T03:53:53.524Z,77.30
2023-05-08T03:56:23.107Z,77.06
2023-05-08T03:59:01.725Z,77.16
2023-05-08T04:01:39.975Z,77.32
2023-05-08T04:04:11.461Z,77.30
2023-05-08T04:06:50.202Z,77.39
2023-05-08T04:09:21.580Z,77.10
2023-05-08T04:11:58.111Z,77.26
2023-05-08T04:14:31.045Z,77.10
2023-05-08T04:17:10.915Z,76.91
2023-05-08T04:19:44.253Z,76.62
2023-05-08T04:22:13.781Z,76.47
2023-05-08T04:24:44.472Z,76.26
2023-05-08T04:27:13.915Z,76.42
2023-05-08T04:29:43.709Z,76.06
2023-05-08T04:32:12.322Z,76.06
2023-05-08T04:34:40.716Z,76.08
2023-05-08T04:37:09.041Z,75.81
2023-05-08T04:39:37.109Z,75.52
2023-05-08T04:42:05.603Z,75.27
2023-05-08T04:44:33.691Z,75.25
2023-05-08T04:47:03.127Z,74.85
2023-05-08T04:49:31.389Z,74.52
2023-05-08T04:51:59.440Z,73.95
2023-05-08T04:54:27.574Z,73.12
2023-05-08T04:56:55.673Z,73.02
2023-05-08T04:59:25.025Z,72.40
2023-05-08T05:01:53.158Z,72.06
2023-05-08T05:04:22.929Z,71.97
2023-05-08T05:06:50.979Z,71.95
2023-05-08T05:09:19.037Z,71.47
2023-05-08T05:11:47.092Z,71.35
2023-05-08T05:14:15.163Z,70.56
2023-05-08T05:16:43.346Z,70.26
2023-05-08T05:19:11.944Z,69.78
2023-05-08T05:21:41.687Z,68.79
2023-05-08T05:24:10.112Z,68.22
2023-05-08T05:26:38.354Z,67.49
2023-05-08T05:29:06.507Z,66.99
2023-05-08T05:31:34.684Z,66.46
2023-05-08T05:34:02.788Z,66.26
2023-05-08T05:36:30.850Z,65.78
2023-05-08T05:39:00.278Z,65.09
2023-05-08T05:41:28.335Z,64.31
2023-05-08T05:43:56.408Z,63.72
2023-05-08T05:46:28.085Z,63.00
2023-05-08T05:48:56.216Z,62.79
2023-05-08T05:51:24.308Z,62.44
2023-05-08T05:53:52.566Z,62.43
2023-05-08T05:56:23.249Z,62.48
2023-05-08T05:58:51.751Z,62.40
2023-05-08T06:01:19.893Z,62.31
2023-05-08T06:03:48.419Z,61.79
2023-05-08T06:06:16.558Z,61.26
2023-05-08T06:08:44.636Z,60.67
2023-05-08T06:11:12.931Z,60.40
2023-05-08T06:13:43.930Z,60.28
2023-05-08T06:16:12.020Z,60.31
2023-05-08T06:18:40.228Z,59.80
2023-05-08T06:21:08.418Z,59.82
2023-05-08T06:23:36.637Z,59.46
2023-05-08T06:26:05.008Z,59.24
2023-05-08T06:28:33.086Z,59.36
2023-05-08T06:31:02.545Z,59.17
2023-05-08T06:33:31.429Z,58.45
2023-05-08T06:35:59.521Z,58.17
2023-05-08T06:38:27.582Z,58.25
2023-05-08T06:40:55.732Z,57.64
2023-05-08T06:43:23.941Z,57.11
2023-05-08T06:45:53.077Z,57.23
2023-05-08T06:48:22.700Z,56.95
2023-05-08T06:50:52.533Z,56.56
2023-05-08T06:53:20.625Z,56.77
2023-05-08T06:55:48.744Z,56.80
2023-05-08T06:58:16.874Z,55.99
2023-05-08T07:00:44.954Z,55.83
2023-05-08T07:03:13.225Z,55.50
2023-05-08T07:05:42.753Z,55.94
2023-05-08T07:08:10.809Z,55.93
2023-05-08T07:10:38.864Z,55.21
2023-05-08T07:13:06.966Z,55.60
2023-05-08T07:15:35.282Z,54.87
2023-05-08T07:18:03.445Z,54.80
2023-05-08T07:20:32.071Z,55.31
2023-05-08T07:23:01.554Z,54.40
2023-05-08T07:25:29.626Z,54.53
2023-05-08T07:27:59.246Z,53.62
2023-05-08T07:30:29.205Z,53.42
2023-05-08T07:32:57.549Z,52.42
2023-05-08T07:35:25.902Z,52.68
2023-05-08T07:37:53.977Z,52.79
2023-05-08T07:40:23.493Z,52.43
2023-05-08T07:42:51.615Z,51.72
2023-05-08T07:45:19.694Z,51.74
2023-05-08T07:47:51.825Z,51.13
2023-05-08T07:50:20.258Z,50.67
2023-05-08T07:52:50.091Z,50.75
2023-05-08T07:55:19.214Z,50.27
2023-05-08T07:57:48.665Z,50.39
2023-05-08T08:00:17.449Z,50.27
2023-05-08T08:02:46.323Z,50.03
2023-05-08T08:05:14.732Z,49.69
2023-05-08T08:07:43.023Z,48.87
2023-05-08T08:10:11.667Z,48.49
2023-05-08T08:12:39.756Z,48.48
2023-05-08T08:15:10.375Z,48.23
2023-05-08T08:17:38.706Z,47.60
2023-05-08T08:20:08.051Z,46.56
2023-05-08T08:22:38.305Z,46.81
2023-05-08T08:25:06.938Z,46.72
2023-05-08T08:27:34.997Z,46.37
2023-05-08T08:30:16.202Z,46.12
2023-05-08T08:32:47.340Z,45.66
2023-05-08T08:35:15.736Z,45.35
2023-05-08T08:37:44.109Z,45.55
2023-05-08T08:40:12.814Z,45.37
2023-05-08T08:42:40.979Z,44.81
2023-05-08T08:45:10.251Z,45.45
2023-05-08T08:47:39.780Z,43.55
2023-05-08T08:50:12.000Z,43.46
2023-05-08T08:52:47.350Z,43.79
2023-05-08T08:55:17.558Z,42.91
2023-05-08T08:57:53.961Z,42.04
2023-05-08T09:00:23.717Z,41.13
2023-05-08T09:02:52.429Z,41.31
2023-05-08T09:05:23.493Z,40.82
2023-05-08T09:07:55.393Z,40.47
2023-05-08T09:10:24.777Z,40.75
2023-05-08T09:12:53.117Z,40.80
2023-05-08T09:15:21.315Z,42.23
2023-05-08T09:17:49.643Z,41.72
2023-05-08T09:20:17.823Z,40.73
2023-05-08T09:22:48.228Z,40.32
2023-05-08T09:25:16.551Z,39.35
2023-05-08T09:27:44.687Z,39.54
2023-05-08T09:30:14.421Z,39.09
2023-05-08T09:32:43.842Z,38.50
2023-05-08T09:35:13.696Z,38.25
2023-05-08T09:37:43.053Z,37.53
2023-05-08T09:40:17.381Z,37.91
2023-05-08T09:42:45.694Z,37.52
2023-05-08T09:45:26.680Z,37.62
2023-05-08T09:47:54.829Z,37.82
2023-05-08T09:50:22.972Z,38.13
2023-05-08T09:52:51.543Z,37.40
2023-05-08T09:55:21.136Z,36.54
2023-05-08T09:57:57.875Z,36.64
2023-05-08T10:00:26.985Z,36.00
2023-05-08T10:02:56.498Z,36.78
2023-05-08T10:05:25.849Z,37.12
2023-05-08T10:07:54.213Z,37.39
2023-05-08T10:10:27.828Z,37.58
2023-05-08T10:12:56.853Z,36.41
2023-05-08T10:15:26.378Z,37.24
2023-05-08T10:17:59.979Z,37.25
2023-05-08T10:20:30.337Z,37.18
2023-05-08T10:22:59.020Z,37.09
2023-05-08T10:25:32.867Z,37.23
2023-05-08T10:28:08.231Z,37.36
2023-05-08T10:30:39.282Z,36.80
2023-05-08T10:33:11.033Z,35.87
2023-05-08T10:35:39.246Z,36.08
2023-05-08T10:38:09.557Z,35.29
2023-05-08T10:40:39.332Z,34.87
2023-05-08T10:43:08.158Z,34.94
2023-05-08T10:45:36.575Z,35.38
2023-05-08T10:48:10.105Z,35.62
2023-05-08T10:50:52.364Z,35.59
2023-05-08T10:53:23.593Z,35.05
2023-05-08T10:55:53.813Z,35.34
2023-05-08T10:58:32.336Z,34.46
2023-05-08T11:01:16.983Z,33.42
2023-05-08T11:03:50.657Z,32.98
2023-05-08T11:06:19.999Z,33.50
2023-05-08T11:08:50.524Z,34.00
2023-05-08T11:11:25.178Z,34.79
2023-05-08T11:13:56.351Z,33.97
2023-05-08T11:17:01.865Z,34.47
2023-05-08T11:19:30.442Z,33.30
2023-05-08T11:22:25.810Z,33.14
2023-05-08T11:24:59.200Z,33.82
2023-05-08T11:27:42.749Z,33.52
2023-05-08T11:30:21.421Z,33.67
2023-05-08T11:33:25.757Z,33.24
2023-05-08T11:35:56.580Z,33.78
2023-05-08T11:38:35.957Z,33.60
2023-05-08T11:41:06.451Z,32.54
2023-05-08T11:43:56.040Z,32.07
2023-05-08T11:46:24.236Z,31.93
2023-05-08T11:48:59.954Z,32.03
2023-05-08T11:51:32.569Z,32.08
2023-05-08T11:54:01.528Z,31.79
2023-05-08T11:56:29.766Z,32.19
2023-05-08T11:59:06.576Z,31.73
2023-05-08T12:01:34.656Z,32.22
2023-05-08T12:04:05.207Z,32.73
2023-05-08T12:06:34.366Z,31.94
2023-05-08T12:09:04.763Z,31.08
2023-05-08T12:11:32.924Z,30.66
2023-05-08T12:14:00.971Z,30.24
2023-05-08T12:16:30.498Z,29.69
2023-05-08T12:18:58.758Z,29.33
2023-05-08T12:21:28.020Z,29.96
2023-05-08T12:23:56.402Z,29.27
2023-05-08T12:26:24.521Z,28.63
2023-05-08T12:28:56.074Z,28.78
2023-05-08T12:31:24.733Z,29.63
2023-05-08T12:33:55.402Z,28.11
2023-05-08T12:36:23.508Z,28.63
2023-05-08T12:38:52.170Z,28.77
2023-05-08T12:41:24.929Z,28.86
2023-05-08T12:43:53.047Z,29.32
2023-05-08T12:46:22.311Z,28.43
2023-05-08T12:48:50.524Z,28.91
2023-05-08T12:51:20.013Z,28.98
2023-05-08T12:53:48.087Z,29.00
2023-05-08T12:56:23.112Z,28.33
2023-05-08T12:58:51.236Z,28.73
2023-05-08T13:01:19.393Z,28.46
2023-05-08T13:04:01.542Z,28.84
2023-05-08T13:06:32.776Z,28.76
2023-05-08T13:09:00.903Z,28.36
2023-05-08T13:11:33.520Z,28.88
2023-05-08T13:14:01.705Z,28.93
2023-05-08T13:16:29.866Z,29.13
2023-05-08T13:18:57.996Z,29.26
2023-05-08T13:21:27.950Z,29.04
2023-05-08T13:23:57.749Z,28.51
2023-05-08T13:26:26.319Z,29.09
2023-05-08T13:28:56.456Z,29.21
2023-05-08T13:31:24.907Z,29.14
2023-05-08T13:33:53.075Z,29.42
2023-05-08T13:36:21.482Z,29.06
2023-05-08T13:38:51.328Z,29.56
2023-05-08T13:41:20.863Z,29.42
2023-05-08T13:43:48.987Z,29.29
2023-05-08T13:46:17.144Z,28.24
2023-05-08T13:48:45.238Z,28.41
2023-05-08T13:51:13.345Z,28.17
2023-05-08T13:53:41.391Z,28.40
2023-05-08T13:56:09.578Z,28.61
2023-05-08T13:58:40.247Z,28.37
2023-05-08T14:01:24.912Z,28.69
2023-05-08T14:03:55.040Z,28.59
2023-05-08T14:06:23.526Z,29.07
2023-05-08T14:08:54.204Z,29.35
2023-05-08T14:11:23.699Z,29.39
2023-05-08T14:13:53.153Z,29.35
2023-05-08T14:16:21.402Z,29.39
2023-05-08T14:18:49.657Z,29.78
2023-05-08T14:21:17.764Z,29.20
2023-05-08T14:23:45.842Z,29.38
2023-05-08T14:26:13.981Z,29.86
2023-05-08T14:28:42.069Z,29.88
2023-05-08T14:31:11.668Z,30.41
2023-05-08T14:33:39.904Z,30.65
2023-05-08T14:36:08.870Z,30.84
2023-05-08T14:38:36.991Z,31.13
2023-05-08T14:41:05.202Z,31.14
2023-05-08T14:43:33.431Z,31.04
2023-05-08T14:46:01.657Z,31.21
2023-05-08T14:48:31.250Z,31.42
2023-05-08T14:50:59.329Z,31.67
2023-05-08T14:53:27.690Z,31.73
2023-05-08T14:55:56.124Z,32.08
2023-05-08T14:58:24.424Z,31.90
2023-05-08T15:00:52.548Z,31.97
2023-05-08T15:03:20.701Z,31.99
2023-05-08T15:05:50.437Z,32.40
2023-05-08T15:08:18.580Z,32.61
2023-05-08T15:10:46.639Z,32.31
2023-05-08T15:13:14.772Z,32.75
2023-05-08T15:15:42.902Z,33.17
2023-05-08T15:18:11.032Z,32.63
2023-05-08T15:20:39.160Z,32.04
2023-05-08T15:23:08.678Z,32.17
2023-05-08T15:25:36.772Z,32.39
2023-05-08T15:28:04.966Z,32.08
2023-05-08T15:30:33.104Z,31.66
2023-05-08T15:33:01.264Z,30.63
2023-05-08T15:35:29.395Z,30.71
2023-05-08T15:37:57.462Z,30.60
2023-05-08T15:40:26.884Z,30.47
2023-05-08T15:42:55.000Z,30.44
2023-05-08T15:45:23.350Z,30.36
2023-05-08T15:47:51.827Z,30.70
2023-05-08T15:50:19.963Z,30.70
2023-05-08T15:52:48.014Z,30.51
2023-05-08T15:55:17.571Z,30.60
2023-05-08T15:57:47.229Z,30.54
2023-05-08T16:00:16.202Z,30.61
2023-05-08T16:02:44.470Z,30.99
2023-05-08T16:05:12.858Z,30.58
2023-05-08T16:07:41.156Z,30.52
2023-05-08T16:10:10.546Z,30.33
2023-05-08T16:12:38.714Z,30.58
2023-05-08T16:15:08.992Z,31.11
2023-05-08T16:17:37.112Z,30.48
2023-05-08T16:20:05.708Z,30.55
2023-05-08T16:22:33.800Z,30.96
2023-05-08T16:25:01.925Z,31.08
2023-05-08T16:27:30.045Z,31.02
2023-05-08T16:29:58.140Z,31.08
2023-05-08T16:32:27.996Z,31.38
2023-05-08T16:34:56.159Z,31.06
2023-05-08T16:37:24.212Z,30.67
2023-05-08T16:39:52.351Z,30.43
2023-05-08T16:42:20.912Z,30.43
2023-05-08T16:44:49.086Z,30.76
2023-05-08T16:47:17.396Z,30.81
2023-05-08T16:49:46.837Z,31.04
2023-05-08T16:52:14.953Z,31.19
2023-05-08T16:54:43.024Z,31.27
2023-05-08T16:57:11.171Z,31.77
2023-05-08T16:59:39.257Z,31.07
2023-05-08T17:02:07.959Z,30.75
2023-05-08T17:04:36.311Z,31.42
2023-05-08T17:07:06.112Z,31.27
2023-05-08T17:09:34.995Z,31.48
2023-05-08T17:12:03.840Z,31.66
2023-05-08T17:14:31.955Z,31.69
2023-05-08T17:17:00.092Z,31.68
2023-05-08T17:19:28.457Z,31.42
2023-05-08T17:21:58.884Z,31.82
2023-05-08T17:24:30.343Z,31.66
2023-05-08T17:26:58.483Z,31.50
2023-05-08T17:29:26.652Z,32.00
2023-05-08T17:31:54.799Z,32.56
2023-05-08T17:34:23.582Z,32.67
2023-05-08T17:36:53.372Z,32.68
2023-05-08T17:39:22.941Z,32.58
2023-05-08T17:41:52.741Z,33.16
2023-05-08T17:44:20.871Z,32.92
2023-05-08T17:46:49.074Z,33.13
2023-05-08T17:49:19.238Z,33.25
2023-05-08T17:51:47.721Z,33.10
2023-05-08T17:54:15.858Z,33.16
2023-05-08T17:56:44.065Z,33.13
2023-05-08T17:59:13.549Z,33.30
2023-05-08T18:01:41.694Z,33.62
2023-05-08T18:04:09.882Z,34.00
2023-05-08T18:06:37.966Z,34.02
2023-05-08T18:09:06.473Z,34.29
2023-05-08T18:11:34.568Z,34.42
2023-05-08T18:14:02.718Z,34.88
2023-05-08T18:16:32.722Z,35.16
2023-05-08T18:19:00.811Z,34.93
2023-05-08T18:21:29.009Z,35.15
2023-05-08T18:23:57.078Z,35.55
2023-05-08T18:26:25.155Z,36.03
2023-05-08T18:28:53.320Z,36.57
2023-05-08T18:31:21.436Z,37.74
2023-05-08T18:33:50.887Z,37.30
2023-05-08T18:36:18.980Z,37.17
2023-05-08T18:38:47.128Z,36.92
2023-05-08T18:41:15.204Z,37.42
2023-05-08T18:43:43.291Z,37.33
2023-05-08T18:46:12.407Z,37.58
2023-05-08T18:48:40.951Z,38.33
2023-05-08T18:51:10.696Z,38.31
2023-05-08T18:53:39.353Z,38.76
2023-05-08T18:56:07.532Z,38.39
2023-05-08T18:58:35.597Z,39.90
2023-05-08T19:01:03.789Z,39.24
2023-05-08T19:03:32.001Z,38.83
2023-05-08T19:06:00.144Z,39.88
2023-05-08T19:08:29.613Z,40.13
2023-05-08T19:10:57.675Z,39.48
2023-05-08T19:13:25.950Z,39.48
2023-05-08T19:15:54.529Z,39.35
2023-05-08T19:18:22.744Z,39.71
2023-05-08T19:20:50.844Z,39.95
2023-05-08T19:23:18.908Z,39.93
2023-05-08T19:25:48.424Z,39.72
2023-05-08T19:28:16.504Z,39.60
2023-05-08T19:30:44.607Z,39.86
2023-05-08T19:33:12.750Z,39.54
2023-05-08T19:35:40.880Z,39.92
2023-05-08T19:38:08.988Z,39.95
2023-05-08T19:40:44.722Z,40.45
2023-05-08T19:43:21.755Z,40.45
2023-05-08T19:45:49.882Z,40.48
2023-05-08T19:48:19.590Z,41.30
2023-05-08T19:50:47.888Z,41.28
2023-05-08T19:53:16.036Z,41.38
2023-05-08T19:55:44.129Z,41.47
2023-05-08T19:58:12.288Z,42.08
2023-05-08T20:00:41.816Z,43.13
2023-05-08T20:03:10.055Z,43.10
2023-05-08T20:05:38.144Z,43.54
2023-05-08T20:08:06.477Z,44.14
2023-05-08T20:10:34.566Z,43.59
2023-05-08T20:13:02.826Z,44.42
2023-05-08T20:15:32.893Z,44.96
2023-05-08T20:18:02.702Z,44.95
2023-05-08T20:20:32.048Z,44.24
2023-05-08T20:23:00.186Z,45.18
2023-05-08T20:25:28.371Z,44.72
2023-05-08T20:27:56.468Z,44.83
2023-05-08T20:30:24.617Z,45.11
2023-05-08T20:32:52.817Z,44.85
2023-05-08T20:35:22.398Z,44.51
2023-05-08T20:37:50.491Z,44.77
2023-05-08T20:40:18.612Z,44.62
2023-05-08T20:42:46.695Z,44.79
2023-05-08T20:45:14.974Z,45.11
2023-05-08T20:47:43.174Z,45.01
2023-05-08T20:50:11.793Z,44.96
2023-05-08T20:52:42.562Z,45.39
2023-05-08T20:55:11.305Z,45.35
2023-05-08T20:57:39.480Z,45.08
2023-05-08T21:00:09.019Z,45.16
2023-05-08T21:02:38.765Z,45.13
2023-05-08T21:05:08.017Z,45.22
2023-05-08T21:07:36.183Z,45.52
2023-05-08T21:10:06.605Z,45.15
2023-05-08T21:12:34.790Z,45.23
2023-05-08T21:15:03.271Z,45.42
2023-05-08T21:17:31.452Z,45.37
2023-05-08T21:19:59.551Z,45.63
2023-05-08T21:22:27.638Z,45.65
2023-05-08T21:24:55.847Z,45.69
2023-05-08T21:27:25.951Z,45.77
2023-05-08T21:29:54.121Z,45.78
2023-05-08T21:32:22.352Z,45.97
2023-05-08T21:34:50.522Z,46.31
2023-05-08T21:37:18.611Z,46.40
2023-05-08T21:39:46.749Z,46.48
2023-05-08T21:42:14.852Z,46.16
2023-05-08T21:44:44.677Z,46.40
2023-05-08T21:47:13.488Z,46.27
2023-05-08T21:49:41.621Z,46.64
2023-05-08T21:52:09.735Z,46.40
2023-05-08T21:54:37.852Z,46.27
2023-05-08T21:57:07.458Z,46.58
2023-05-08T21:59:35.591Z,46.27
2023-05-08T22:02:05.163Z,46.55
2023-05-08T22:04:33.384Z,46.44
2023-05-08T22:07:01.504Z,46.45
2023-05-08T22:09:29.619Z,46.44
2023-05-08T22:11:57.699Z,46.17
2023-05-08T22:14:25.810Z,46.39
2023-05-08T22:16:54.082Z,46.49
2023-05-08T22:19:23.531Z,46.58
2023-05-08T22:21:51.660Z,46.61
2023-05-08T22:24:20.188Z,46.71
2023-05-08T22:26:48.284Z,46.71
2023-05-08T22:29:16.964Z,46.61
2023-05-08T22:31:45.394Z,46.71
2023-05-08T22:34:13.652Z,46.95
2023-05-08T22:36:43.108Z,46.88
2023-05-08T22:39:11.685Z,46.72
2023-05-08T22:41:39.937Z,46.69
2023-05-08T22:44:08.119Z,46.76
2023-05-08T22:46:36.874Z,46.99
2023-05-08T22:49:05.954Z,46.90
2023-05-08T22:51:34.167Z,46.78
2023-05-08T22:54:03.692Z,46.73
2023-05-08T22:56:31.937Z,46.62
2023-05-08T22:59:00.127Z,47.04
2023-05-08T23:01:28.295Z,46.91
2023-05-08T23:03:56.607Z,47.00
2023-05-08T23:06:25.107Z,46.97
2023-05-08T23:08:53.221Z,47.33
2023-05-08T23:11:22.805Z,47.23
2023-05-08T23:13:50.907Z,47.13
2023-05-08T23:16:19.116Z,47.34
2023-05-08T23:18:47.392Z,47.09
2023-05-08T23:21:15.544Z,47.24
2023-05-08T23:23:43.688Z,47.46
2023-05-08T23:26:11.824Z,47.04
2023-05-08T23:28:41.280Z,47.28
2023-05-08T23:31:09.481Z,47.27
2023-05-08T23:33:37.643Z,47.28
2023-05-08T23:36:06.474Z,47.31
2023-05-08T23:38:34.603Z,47.47
2023-05-08T23:41:02.714Z,47.59
2023-05-08T23:43:31.298Z,47.61
2023-05-08T23:46:00.881Z,47.76
2023-05-08T23:48:29.003Z,47.83
2023-05-08T23:50:57.140Z,47.72
2023-05-08T23:53:25.489Z,47.94
2023-05-08T23:55:53.658Z,47.90
2023-05-08T23:58:21.908Z,48.04
